Time;durP1;ratioP1;P1;durP2;ratioP2;P2;SDS_P1;SDS_P2;PMS_P1;PMS_P2;Temp;Humidity;BMP_temperature;BMP_pressure;BME280_temperature;BME280_humidity;BME280_pressure;Samples;Min_cycle;Max_cycle;Signal;HPM_P1;HPM_P2
2022/04/23 00:02:10;;;;;;;6.60;4.20;;;;;;;9.71;77.10;101261.19;5031287;28;20573;-68
2022/04/23 00:04:35;;;;;;;5.10;4.60;;;;;;;9.67;77.15;101257.69;5031030;28;20244;-68
2022/04/23 00:07:00;;;;;;;6.30;4.43;;;;;;;9.60;76.73;101266.03;5022677;28;20231;-68
2022/04/23 00:09:26;;;;;;;6.57;4.90;;;;;;;9.58;77.69;101264.25;5011445;28;20190;-68
2022/04/23 00:11:55;;;;;;;8.23;4.70;;;;;;;9.49;77.63;101256.31;5010965;28;20191;-68
2022/04/23 00:14:22;;;;;;;6.10;4.43;;;;;;;9.48;77.40;101257.97;5011478;28;20191;-68
2022/04/23 00:16:50;;;;;;;6.97;4.70;;;;;;;9.41;77.56;101262.84;5044522;28;20229;-68
2022/04/23 00:19:16;;;;;;;6.80;5.00;;;;;;;9.41;77.70;101258.63;5046783;28;20423;-68
2022/04/23 00:21:41;;;;;;;6.00;4.47;;;;;;;9.38;77.62;101255.97;5044863;28;20220;-68
2022/04/23 00:24:07;;;;;;;7.53;5.20;;;;;;;9.33;78.21;101260.06;5040324;28;20189;-68
2022/04/23 00:26:32;;;;;;;6.77;5.37;;;;;;;9.25;78.65;101258.06;5051007;28;20693;-68
2022/04/23 00:28:57;;;;;;;8.17;5.00;;;;;;;9.16;78.52;101263.78;5045457;28;20209;-68
2022/04/23 00:31:23;;;;;;;8.17;5.00;;;;;;;9.17;79.02;101254.44;5030894;28;20194;-68
2022/04/23 00:33:48;;;;;;;5.83;5.17;;;;;;;9.12;79.01;101256.84;5035077;28;20228;-68
2022/04/23 00:36:14;;;;;;;5.10;4.57;;;;;;;9.07;79.18;101262.63;5037463;28;20210;-68
2022/04/23 00:38:40;;;;;;;6.70;4.77;;;;;;;9.03;78.83;101259.09;5036573;28;20194;-68
2022/04/23 00:41:07;;;;;;;6.67;5.07;;;;;;;9.01;78.47;101259.88;5041013;28;20186;-68
2022/04/23 00:43:36;;;;;;;5.37;4.70;;;;;;;8.96;78.79;101254.63;5038160;28;20193;-68
2022/04/23 00:46:03;;;;;;;6.30;5.00;;;;;;;8.88;79.06;101261.16;5042260;28;20779;-68
2022/04/23 00:48:29;;;;;;;7.67;5.60;;;;;;;8.87;80.00;101262.00;5043073;28;20344;-68
2022/04/23 00:51:00;;;;;;;7.77;4.90;;;;;;;8.80;79.78;101257.47;5044781;28;20214;-68
2022/04/23 00:53:27;;;;;;;5.47;4.83;;;;;;;8.77;79.97;101256.53;5029266;28;20222;-68
2022/04/23 00:55:52;;;;;;;7.33;5.13;;;;;;;8.75;79.42;101250.50;5030590;28;20210;-68
2022/04/23 00:58:19;;;;;;;9.80;5.33;;;;;;;8.73;79.72;101252.13;5028501;28;20195;-68
2022/04/23 01:00:45;;;;;;;7.80;5.27;;;;;;;8.68;80.32;101259.66;5030784;28;20667;-68
2022/04/23 01:03:12;;;;;;;7.73;5.60;;;;;;;8.62;79.97;101261.13;5030634;28;20171;-68
2022/04/23 01:05:41;;;;;;;6.73;5.27;;;;;;;8.59;79.96;101261.00;5030424;28;20214;-69
2022/04/23 01:08:06;;;;;;;8.73;6.20;;;;;;;8.61;80.42;101261.94;5029726;28;20183;-69
2022/04/23 01:10:31;;;;;;;6.83;5.60;;;;;;;8.54;79.96;101260.88;5029922;28;20198;-68
2022/04/23 01:12:57;;;;;;;6.57;5.83;;;;;;;8.51;80.53;101263.31;5030088;28;20251;-68
2022/04/23 01:15:22;;;;;;;8.10;6.13;;;;;;;8.44;80.68;101266.44;5018866;28;20719;-68
2022/04/23 01:17:49;;;;;;;8.10;5.93;;;;;;;8.43;81.19;101259.63;5010411;28;20183;-68
2022/04/23 01:20:15;;;;;;;6.40;5.77;;;;;;;8.38;80.51;101268.81;5009865;28;20683;-68
2022/04/23 01:22:44;;;;;;;9.77;6.30;;;;;;;8.35;81.84;101263.63;5010316;28;20175;-68
2022/04/23 01:25:12;;;;;;;7.47;6.20;;;;;;;8.32;80.84;101266.03;5009831;28;20254;-68
2022/04/23 01:27:44;;;;;;;8.07;6.40;;;;;;;8.32;81.76;101260.94;5010339;28;20195;-68
2022/04/23 01:30:10;;;;;;;6.93;6.27;;;;;;;8.32;81.11;101263.50;5010047;28;20191;-68
2022/04/23 01:32:36;;;;;;;6.70;5.90;;;;;;;8.27;81.30;101270.13;5021868;28;20210;-68
2022/04/23 01:35:01;;;;;;;9.13;6.33;;;;;;;8.26;80.92;101265.84;5029851;28;20174;-68
2022/04/23 01:37:27;;;;;;;8.57;6.03;;;;;;;8.20;81.19;101260.50;5029850;28;20254;-68
2022/04/23 01:39:52;;;;;;;7.97;6.77;;;;;;;8.16;81.42;101265.41;5029478;28;20280;-68
2022/04/23 01:42:19;;;;;;;11.67;7.00;;;;;;;8.17;81.26;101262.06;5032135;28;20201;-68
2022/04/23 01:44:46;;;;;;;9.93;7.00;;;;;;;8.14;81.52;101261.94;5029595;28;20194;-68
2022/04/23 01:47:11;;;;;;;7.63;6.73;;;;;;;8.14;82.15;101264.47;5029227;28;20210;-68
2022/04/23 01:49:36;;;;;;;9.37;6.67;;;;;;;8.10;81.28;101258.41;5028882;28;20942;-68
2022/04/23 01:52:02;;;;;;;7.73;6.80;;;;;;;8.08;81.43;101261.72;5029516;28;20591;-68
2022/04/23 01:54:27;;;;;;;11.10;7.73;;;;;;;8.07;81.72;101258.28;5029069;28;20190;-68
2022/04/23 01:56:56;;;;;;;10.20;6.73;;;;;;;8.01;81.94;101262.34;5029496;28;20233;-68
2022/04/23 01:59:22;;;;;;;8.40;6.87;;;;;;;7.97;82.23;101263.88;5028928;28;20890;-68
2022/04/23 02:01:48;;;;;;;10.23;7.07;;;;;;;7.98;81.90;101258.00;5029536;28;20194;-68
2022/04/23 02:04:13;;;;;;;10.73;7.67;;;;;;;7.93;82.07;101266.28;5029140;28;20198;-68
2022/04/23 02:06:39;;;;;;;8.77;7.33;;;;;;;7.88;82.63;101267.78;5017215;28;20207;-68
2022/04/23 02:09:04;;;;;;;10.10;7.47;;;;;;;7.81;82.45;101266.69;5009276;28;20680;-68
2022/04/23 02:11:29;;;;;;;9.67;6.97;;;;;;;7.81;82.80;101269.25;5009399;28;20263;-68
2022/04/23 02:13:55;;;;;;;8.50;7.37;;;;;;;7.79;82.56;101268.31;5009850;28;20215;-68
2022/04/23 02:16:20;;;;;;;9.70;8.70;;;;;;;7.75;82.75;101275.78;5024495;28;20202;-68
2022/04/23 02:18:46;;;;;;;10.90;8.03;;;;;;;7.69;82.96;101278.13;5009575;28;20602;-68
2022/04/23 02:21:11;;;;;;;9.80;7.90;;;;;;;7.65;83.52;101277.13;5024287;28;20191;-68
2022/04/23 02:23:36;;;;;;;10.00;7.87;;;;;;;7.68;83.28;101271.25;5021632;28;20198;-68
2022/04/23 02:26:04;;;;;;;9.70;7.93;;;;;;;7.63;82.77;101267.69;5028955;28;20210;-68
2022/04/23 02:28:29;;;;;;;10.00;8.17;;;;;;;7.57;82.92;101267.44;5033109;28;20182;-68
2022/04/23 02:30:54;;;;;;;10.67;8.67;;;;;;;7.54;83.76;101264.78;5031000;28;20644;-68
2022/04/23 02:33:20;;;;;;;11.87;8.60;;;;;;;7.52;82.91;101269.84;5043606;28;20205;-68
2022/04/23 02:35:46;;;;;;;11.87;8.83;;;;;;;7.49;83.59;101271.38;5052970;28;20280;-68
2022/04/23 02:38:11;;;;;;;13.93;8.70;;;;;;;7.48;83.18;101256.91;5039980;28;20289;-68
2022/04/23 02:40:38;;;;;;;11.57;8.77;;;;;;;7.47;83.17;101273.00;5031524;28;20264;-68
2022/04/23 02:43:04;;;;;;;11.23;8.77;;;;;;;7.39;83.58;101272.72;5032170;28;20179;-67
2022/04/23 02:45:29;;;;;;;11.63;8.87;;;;;;;7.36;83.88;101262.41;5032086;28;20686;-68
2022/04/23 02:47:56;;;;;;;11.67;9.17;;;;;;;7.34;84.48;101268.25;5045500;28;20557;-68
2022/04/23 02:50:29;;;;;;;14.30;9.57;;;;;;;7.24;84.29;101268.72;5048265;28;20210;-68
2022/04/23 02:52:56;;;;;;;12.13;9.30;;;;;;;7.23;84.05;101269.53;5038330;28;20210;-68
2022/04/23 02:55:24;;;;;;;12.07;9.17;;;;;;;7.17;84.21;101271.81;5031970;28;20210;-68
2022/04/23 02:57:49;;;;;;;12.90;9.13;;;;;;;7.14;84.75;101271.69;5047017;28;20325;-68
2022/04/23 03:00:15;;;;;;;11.20;9.40;;;;;;;7.15;84.50;101270.88;5039006;28;20286;-68
2022/04/23 03:02:41;;;;;;;12.20;9.83;;;;;;;7.11;85.29;101269.03;5041629;28;20280;-67
2022/04/23 03:05:12;;;;;;;12.10;9.80;;;;;;;7.09;84.61;101271.50;5036280;28;20827;-68
2022/04/23 03:07:39;;;;;;;12.93;9.97;;;;;;;7.04;85.31;101272.16;5039352;28;20202;-68
2022/04/23 03:10:06;;;;;;;11.67;9.50;;;;;;;7.01;85.28;101270.31;5013631;28;20257;-68
2022/04/23 03:12:31;;;;;;;13.20;10.33;;;;;;;7.01;85.51;101269.47;5042275;28;20202;-68
2022/04/23 03:14:57;;;;;;;14.13;10.80;;;;;;;7.01;85.75;101274.56;5040852;28;20578;-68
2022/04/23 03:17:23;;;;;;;13.87;9.77;;;;;;;6.93;85.40;101274.25;5045346;28;20228;-69
2022/04/23 03:19:48;;;;;;;13.90;10.93;;;;;;;6.93;85.53;101275.91;5047028;28;20263;-68
2022/04/23 03:22:15;;;;;;;12.80;10.23;;;;;;;6.89;85.27;101272.38;5036764;28;20210;-68
2022/04/23 03:24:40;;;;;;;12.33;10.53;;;;;;;6.86;85.80;101284.13;5035545;28;20648;-68
2022/04/23 03:27:06;;;;;;;12.60;10.70;;;;;;;6.82;85.80;101282.25;5039855;28;20221;-68
2022/04/23 03:29:32;;;;;;;12.90;11.13;;;;;;;6.77;85.82;101286.28;5044225;28;20229;-68
2022/04/23 03:31:58;;;;;;;14.53;11.40;;;;;;;6.76;85.75;101282.00;5037187;28;20198;-68
2022/04/23 03:34:23;;;;;;;14.27;10.63;;;;;;;6.76;85.42;101280.31;5037529;28;20195;-69
2022/04/23 03:36:49;;;;;;;14.97;11.40;;;;;;;6.71;85.69;101281.81;5045660;28;20298;-68
2022/04/23 03:39:15;;;;;;;13.60;10.77;;;;;;;6.73;85.49;101277.63;5037461;28;20263;-68
2022/04/23 03:41:40;;;;;;;12.57;11.10;;;;;;;6.75;85.59;101285.34;5036327;28;20182;-68
2022/04/23 03:44:05;;;;;;;17.07;11.17;;;;;;;6.73;85.58;101281.88;5043755;28;20521;-68
2022/04/23 03:46:31;;;;;;;13.40;11.33;;;;;;;6.67;85.53;101286.69;5043278;28;20216;-68
2022/04/23 03:48:56;;;;;;;15.70;11.90;;;;;;;6.67;85.59;101287.56;5036484;28;20447;-68
2022/04/23 03:51:21;;;;;;;12.70;11.30;;;;;;;6.65;86.09;101289.19;5038368;28;20209;-68
2022/04/23 03:53:47;;;;;;;15.40;12.30;;;;;;;6.56;85.96;101287.94;5035163;28;20572;-68
2022/04/23 03:56:12;;;;;;;15.10;11.33;;;;;;;6.54;86.36;101292.94;5043485;28;20733;-68
2022/04/23 03:58:38;;;;;;;16.43;12.00;;;;;;;6.56;86.35;101295.56;5034975;28;20194;-68
2022/04/23 04:01:04;;;;;;;14.43;11.80;;;;;;;6.54;87.02;101287.84;5035156;28;20225;-68
2022/04/23 04:03:29;;;;;;;16.27;12.03;;;;;;;6.52;86.42;101289.47;5040134;28;20218;-68
2022/04/23 04:05:55;;;;;;;20.17;12.17;;;;;;;6.54;86.29;101300.56;5036646;28;20214;-67
2022/04/23 04:08:20;;;;;;;14.83;11.17;;;;;;;6.53;86.66;101292.88;5043792;28;20196;-68
2022/04/23 04:10:46;;;;;;;14.97;11.83;;;;;;;6.51;86.40;101295.38;5032272;28;20189;-68
2022/04/23 04:13:12;;;;;;;13.43;11.47;;;;;;;6.52;85.86;101296.22;5036762;28;20194;-68
2022/04/23 04:15:38;;;;;;;17.97;11.80;;;;;;;6.53;86.07;101298.84;5033236;28;20288;-68
2022/04/23 04:18:05;;;;;;;19.00;12.63;;;;;;;6.49;86.17;101296.13;5033019;28;20181;-68
2022/04/23 04:20:32;;;;;;;16.50;12.27;;;;;;;6.48;86.65;101290.16;5035552;28;20209;-68
2022/04/23 04:22:57;;;;;;;15.50;11.90;;;;;;;6.51;86.60;101294.50;5036501;28;20186;-68
2022/04/23 04:25:23;;;;;;;18.63;12.13;;;;;;;6.48;86.27;101296.91;5034434;28;20214;-68
2022/04/23 04:27:48;;;;;;;16.03;12.37;;;;;;;6.46;86.25;101296.88;5039066;28;20188;-68
2022/04/23 04:30:14;;;;;;;17.67;12.83;;;;;;;6.48;86.62;101290.16;5029440;28;20248;-68
2022/04/23 04:32:41;;;;;;;17.03;12.77;;;;;;;6.49;86.56;101294.44;5039780;28;20213;-68
2022/04/23 04:35:07;;;;;;;16.90;12.13;;;;;;;6.48;86.27;101289.28;5043352;28;20392;-68
2022/04/23 04:37:33;;;;;;;14.60;12.10;;;;;;;6.50;86.49;101292.75;5039607;28;20721;-68
2022/04/23 04:39:58;;;;;;;17.00;12.87;;;;;;;6.53;86.64;101291.22;5040596;28;20186;-68
2022/04/23 04:42:23;;;;;;;18.17;13.07;;;;;;;6.51;86.30;101289.41;5045212;28;20253;-68
2022/04/23 04:44:49;;;;;;;17.53;12.43;;;;;;;6.53;86.59;101298.84;5039019;28;20205;-68
2022/04/23 04:47:15;;;;;;;18.83;12.83;;;;;;;6.60;85.97;101292.34;5039840;28;20309;-68
2022/04/23 04:49:40;;;;;;;17.27;13.23;;;;;;;6.63;86.03;101297.56;5040914;28;20229;-68
2022/04/23 04:52:06;;;;;;;15.73;12.43;;;;;;;6.65;85.80;101294.28;5044049;28;20209;-68
2022/04/23 04:54:32;;;;;;;18.57;12.57;;;;;;;6.70;86.11;101294.47;5047365;28;20186;-67
2022/04/23 04:56:57;;;;;;;15.90;12.37;;;;;;;6.71;86.01;101299.63;5028929;28;20230;-68
2022/04/23 04:59:23;;;;;;;16.57;12.97;;;;;;;6.76;85.50;101303.22;5033587;28;20206;-68
2022/04/23 05:01:50;;;;;;;15.37;12.53;;;;;;;6.78;85.51;101293.97;5040712;28;20197;-67
2022/04/23 05:04:16;;;;;;;19.90;13.03;;;;;;;6.86;85.79;101299.41;5035785;28;20186;-67
2022/04/23 05:06:41;;;;;;;17.63;12.97;;;;;;;6.92;85.23;101300.53;5038148;28;20209;-67
2022/04/23 05:09:06;;;;;;;17.80;14.50;;;;;;;6.99;84.97;101309.25;5048686;28;20256;-67
2022/04/23 05:11:32;;;;;;;15.47;12.13;;;;;;;7.08;83.96;101309.63;5037059;28;20209;-67
2022/04/23 05:13:57;;;;;;;16.73;12.73;;;;;;;7.17;83.78;101305.78;5035638;28;20226;-67
2022/04/23 05:16:23;;;;;;;17.67;13.97;;;;;;;7.21;83.90;101306.78;5042707;28;20573;-67
2022/04/23 05:18:48;;;;;;;15.73;12.97;;;;;;;7.31;83.93;101311.41;5043390;28;20281;-67
2022/04/23 05:21:13;;;;;;;15.70;13.27;;;;;;;7.41;83.22;101308.44;5043531;28;20202;-67
2022/04/23 05:23:39;;;;;;;20.17;12.43;;;;;;;7.53;82.61;101311.47;5040962;28;20201;-67
2022/04/23 05:26:04;;;;;;;16.47;13.03;;;;;;;7.66;82.12;101308.56;5034461;28;20276;-68
2022/04/23 05:28:30;;;;;;;13.60;12.20;;;;;;;7.76;81.09;101305.56;5042662;28;20190;-67
2022/04/23 05:30:56;;;;;;;16.97;13.07;;;;;;;7.86;80.18;101311.06;5042572;28;20277;-67
2022/04/23 05:33:22;;;;;;;17.07;12.87;;;;;;;8.04;80.10;101309.19;5035361;28;20666;-68
2022/04/23 05:35:47;;;;;;;19.03;13.10;;;;;;;8.17;78.97;101310.50;5021611;28;20227;-67
2022/04/23 05:38:13;;;;;;;12.87;11.47;;;;;;;8.25;79.24;101310.00;5038635;28;20189;-67
2022/04/23 05:40:38;;;;;;;15.57;12.60;;;;;;;8.34;79.34;101312.88;5042342;28;20218;-67
2022/04/23 05:43:04;;;;;;;16.10;12.30;;;;;;;8.49;78.31;101304.91;5038428;28;20622;-67
2022/04/23 05:45:29;;;;;;;15.73;12.50;;;;;;;8.62;78.27;101312.19;5036123;28;20745;-67
2022/04/23 05:47:56;;;;;;;14.30;11.97;;;;;;;8.75;76.89;101301.56;5039515;28;20209;-67
2022/04/23 05:50:23;;;;;;;15.13;12.87;;;;;;;8.81;76.25;101304.31;5036452;28;20758;-68
2022/04/23 05:52:48;;;;;;;13.43;11.83;;;;;;;9.00;76.17;101317.75;5038131;28;20213;-68
2022/04/23 05:55:14;;;;;;;14.27;11.83;;;;;;;9.12;74.97;101310.47;5044965;28;20193;-68
2022/04/23 05:57:39;;;;;;;15.13;11.73;;;;;;;9.23;73.88;101313.38;5039435;28;20758;-68
2022/04/23 06:00:08;;;;;;;13.77;11.63;;;;;;;9.35;73.67;101318.91;5027876;28;20205;-67
2022/04/23 06:02:40;;;;;;;12.60;11.30;;;;;;;9.51;71.66;101311.75;5030038;28;20196;-67
2022/04/23 06:05:06;;;;;;;12.83;11.00;;;;;;;9.69;71.35;101307.22;5014010;28;20194;-68
2022/04/23 06:07:32;;;;;;;14.93;12.17;;;;;;;9.87;71.63;101317.09;5036741;28;20181;-68
2022/04/23 06:09:58;;;;;;;12.90;11.60;;;;;;;10.01;69.95;101318.38;5041580;28;20196;-68
2022/04/23 06:12:23;;;;;;;12.73;11.33;;;;;;;10.09;69.49;101320.34;5035241;28;20574;-68
2022/04/23 06:14:51;;;;;;;11.90;10.70;;;;;;;10.28;68.93;101316.66;5044185;28;20227;-68
2022/04/23 06:17:23;;;;;;;12.57;10.83;;;;;;;10.32;68.40;101318.47;5030970;28;20350;-68
2022/04/23 06:19:48;;;;;;;15.53;12.47;;;;;;;10.52;69.30;101314.75;5035588;28;20187;-67
2022/04/23 06:22:14;;;;;;;12.17;10.83;;;;;;;10.68;67.95;101316.88;5034135;28;20201;-67
2022/04/23 06:24:39;;;;;;;12.40;11.10;;;;;;;10.88;67.24;101319.13;5036401;28;20240;-71
2022/04/23 06:27:04;;;;;;;11.67;10.43;;;;;;;11.01;67.53;101313.50;5035664;28;20210;-68
2022/04/23 06:29:30;;;;;;;13.83;11.13;;;;;;;11.22;65.82;101323.41;5041014;28;20243;-68
2022/04/23 06:31:55;;;;;;;12.50;10.93;;;;;;;11.29;64.69;101322.75;5039447;28;20546;-70
2022/04/23 06:34:21;;;;;;;12.30;10.97;;;;;;;11.34;64.25;101314.31;5041975;28;20224;-68
2022/04/23 06:36:46;;;;;;;12.30;10.47;;;;;;;11.54;62.94;101318.22;5038490;28;20593;-68
2022/04/23 06:39:11;;;;;;;11.27;10.17;;;;;;;11.79;62.86;101317.09;5042264;28;20243;-68
2022/04/23 06:41:37;;;;;;;12.03;10.60;;;;;;;11.77;62.28;101311.94;5037589;28;20210;-68
2022/04/23 06:44:05;;;;;;;11.57;9.80;;;;;;;12.03;62.57;101310.78;5044021;28;20188;-68
2022/04/23 06:46:30;;;;;;;11.30;10.10;;;;;;;12.05;61.16;101315.94;5041450;28;20205;-68
2022/04/23 06:48:56;;;;;;;11.43;10.07;;;;;;;12.19;60.51;101314.53;5038138;28;20182;-68
2022/04/23 06:51:22;;;;;;;11.37;10.27;;;;;;;12.41;60.71;101314.13;5041182;28;20206;-68
2022/04/23 06:53:47;;;;;;;10.77;9.77;;;;;;;12.59;59.71;101310.19;5037172;28;20209;-68
2022/04/23 06:56:13;;;;;;;11.03;9.77;;;;;;;12.74;58.96;101317.31;5032727;28;20217;-68
2022/04/23 06:58:38;;;;;;;10.57;9.47;;;;;;;12.77;58.07;101309.69;5039890;28;20199;-68
2022/04/23 07:01:04;;;;;;;10.70;9.60;;;;;;;12.79;57.92;101306.31;5038626;28;20198;-67
2022/04/23 07:03:29;;;;;;;11.20;10.10;;;;;;;12.82;58.35;101311.47;5036858;28;20186;-67
2022/04/23 07:05:55;;;;;;;9.83;8.93;;;;;;;13.03;57.35;101312.75;5030106;28;20225;-68
2022/04/23 07:08:20;;;;;;;10.23;9.23;;;;;;;13.20;56.66;101301.88;5037541;28;20181;-68
2022/04/23 07:10:46;;;;;;;9.73;8.73;;;;;;;13.54;56.44;101306.69;5045691;28;20717;-68
2022/04/23 07:13:14;;;;;;;10.10;9.10;;;;;;;13.43;55.07;101307.38;5040694;28;20910;-67
2022/04/23 07:15:39;;;;;;;9.87;8.63;;;;;;;13.63;55.44;101313.69;5031084;28;21084;-67
2022/04/23 07:18:07;;;;;;;9.63;8.63;;;;;;;13.52;55.45;101315.22;5042898;28;20186;-68
2022/04/23 07:20:33;;;;;;;9.70;8.80;;;;;;;13.80;53.67;101313.09;5041665;28;20194;-67
2022/04/23 07:25:42;;;;;;;9.97;8.63;;;;;;;14.19;51.66;101310.16;5041400;28;20667;-68
2022/04/23 07:28:07;;;;;;;8.87;7.97;;;;;;;14.54;51.97;101306.34;5041142;28;20283;-68
2022/04/23 07:30:34;;;;;;;8.80;7.90;;;;;;;14.73;51.14;101306.50;5043208;28;20305;-68
2022/04/23 07:32:59;;;;;;;8.40;7.60;;;;;;;14.88;50.50;101303.22;5045633;28;20253;-69
2022/04/23 07:38:13;;;;;;;8.23;7.43;;;;;;;15.10;51.81;101303.41;5036843;28;20190;-66
2022/04/23 07:40:40;;;;;;;7.83;6.97;;;;;;;15.52;48.24;101296.03;5036361;28;20189;-66
2022/04/23 07:43:10;;;;;;;7.33;6.63;;;;;;;15.04;47.51;101300.78;5031829;28;20262;-66
2022/04/23 07:45:37;;;;;;;6.63;6.03;;;;;;;15.68;48.18;101297.00;5031042;28;20360;-66
2022/04/23 07:48:04;;;;;;;8.97;5.80;;;;;;;16.00;46.09;101301.50;5031394;28;20292;-66
2022/04/23 07:50:30;;;;;;;6.63;6.03;;;;;;;16.11;45.59;101294.63;5031857;28;20536;-66
2022/04/23 07:52:55;;;;;;;5.97;5.47;;;;;;;15.50;43.68;101296.88;5031262;28;20212;-64
2022/04/23 07:55:20;;;;;;;6.40;5.80;;;;;;;15.90;44.38;101298.84;5031644;28;20215;-66
2022/04/23 07:57:46;;;;;;;6.13;5.53;;;;;;;16.27;44.46;101300.72;5031216;28;20189;-69
2022/04/23 08:00:11;;;;;;;6.50;5.90;;;;;;;15.86;43.57;101297.09;5031643;28;20792;-68
2022/04/23 08:02:37;;;;;;;6.13;5.63;;;;;;;16.15;42.37;101298.09;5027323;28;20205;-68
2022/04/23 08:05:02;;;;;;;6.20;5.60;;;;;;;16.22;42.63;101297.28;5011419;28;20191;-68
2022/04/23 08:07:28;;;;;;;6.67;5.30;;;;;;;16.40;43.26;101295.63;4993748;28;20275;-68
2022/04/23 08:09:53;;;;;;;5.80;5.27;;;;;;;16.52;41.70;101294.78;5010724;28;20229;-68
2022/04/23 08:12:18;;;;;;;6.67;5.37;;;;;;;16.37;42.21;101295.59;5011328;28;20174;-68
2022/04/23 08:14:43;;;;;;;6.23;5.60;;;;;;;16.53;42.18;101292.22;5011319;28;20268;-68
2022/04/23 08:17:09;;;;;;;6.27;5.67;;;;;;;16.74;41.88;101287.09;5010196;28;20215;-68
2022/04/23 08:19:34;;;;;;;5.63;5.13;;;;;;;16.99;41.69;101291.44;5014476;28;20280;-69
2022/04/23 08:22:00;;;;;;;5.93;5.10;;;;;;;17.19;40.54;101289.72;5029763;28;20189;-68
2022/04/23 08:24:25;;;;;;;5.77;5.17;;;;;;;17.08;40.37;101298.34;5030713;28;20190;-68
2022/04/23 08:26:51;;;;;;;7.07;4.90;;;;;;;17.54;40.39;101289.72;5029519;28;20273;-69
2022/04/23 08:32:00;;;;;;;5.10;4.47;;;;;;;17.61;39.73;101284.53;5030759;28;20179;-69
2022/04/23 08:34:25;;;;;;;5.17;4.70;;;;;;;17.70;39.57;101289.69;5032409;28;20248;-69
2022/04/23 08:36:51;;;;;;;5.00;4.53;;;;;;;17.97;40.12;101280.97;5033448;28;20727;-69
2022/04/23 08:39:16;;;;;;;6.40;5.20;;;;;;;17.96;38.88;101281.84;5049291;28;20178;-69
2022/04/23 08:41:44;;;;;;;5.50;5.00;;;;;;;17.98;39.10;101273.19;5050669;28;20185;-68
2022/04/23 08:44:10;;;;;;;6.40;5.00;;;;;;;18.33;40.36;101275.66;5036545;28;20667;-69
2022/04/23 08:46:39;;;;;;;6.63;5.17;;;;;;;18.47;38.44;101274.69;5030355;28;20203;-69
2022/04/23 08:49:09;;;;;;;5.80;5.20;;;;;;;18.49;37.91;101270.38;5030210;28;20178;-69
2022/04/23 08:51:36;;;;;;;6.00;5.30;;;;;;;18.60;37.91;101278.94;5030616;28;20643;-68
2022/04/23 08:54:14;;;;;;;5.83;5.23;;;;;;;18.73;38.09;101272.81;5018763;28;20207;-69
2022/04/23 08:56:41;;;;;;;5.67;5.17;;;;;;;18.40;37.75;101269.56;5039216;28;20600;-68
2022/04/23 08:59:08;;;;;;;6.50;6.00;;;;;;;18.55;37.39;101262.53;5034236;28;20189;-69
2022/04/23 09:01:37;;;;;;;5.90;5.30;;;;;;;18.85;38.14;101261.47;5037215;28;20200;-68
2022/04/23 09:04:04;;;;;;;5.67;5.17;;;;;;;18.77;37.89;101261.53;5048901;28;20204;-68
2022/04/23 09:06:48;;;;;;;5.63;5.13;;;;;;;18.54;37.31;101265.16;5049505;28;20209;-69
2022/04/23 09:09:19;;;;;;;6.07;5.57;;;;;;;18.89;37.03;101252.78;5048765;28;20747;-69
2022/04/23 09:11:53;;;;;;;5.90;5.40;;;;;;;19.15;37.13;101243.91;5034624;28;20201;-68
2022/04/23 09:14:23;;;;;;;6.20;5.70;;;;;;;19.26;36.63;101251.63;5029280;28;20218;-69
2022/04/23 09:25:10;;;;;;;5.90;5.40;;;;;;;19.83;35.22;101248.41;5037914;28;20214;-70
2022/04/23 09:27:36;;;;;;;8.03;5.47;;;;;;;19.77;35.70;101246.72;5040768;28;20566;-70
2022/04/23 09:30:03;;;;;;;5.50;5.00;;;;;;;19.73;34.91;101239.88;5029133;28;20198;-69
2022/04/23 09:32:29;;;;;;;5.20;4.70;;;;;;;19.68;34.32;101235.59;5041115;28;20220;-69
2022/04/23 09:35:07;;;;;;;5.30;4.80;;;;;;;19.53;34.54;101231.41;5061941;28;20193;-69
2022/04/23 09:40:26;;;;;;;5.40;4.93;;;;;;;19.72;35.79;101229.50;5027088;28;20202;-70
2022/04/23 09:43:01;;;;;;;5.80;5.30;;;;;;;19.90;36.42;101226.69;5028695;28;20201;-69
2022/04/23 09:45:31;;;;;;;5.77;5.27;;;;;;;19.85;34.40;101215.47;5036582;28;20253;-70
2022/04/23 09:48:14;;;;;;;6.30;5.80;;;;;;;19.68;35.47;101217.41;5029486;28;20194;-70
2022/04/23 09:50:41;;;;;;;5.00;4.50;;;;;;;19.86;34.57;101231.03;5029111;28;20677;-71
2022/04/23 09:53:14;;;;;;;6.20;5.23;;;;;;;20.25;34.16;101216.69;5029144;28;20214;-69
2022/04/23 09:55:40;;;;;;;4.93;4.43;;;;;;;20.62;33.45;101213.53;5039433;28;20674;-69
2022/04/23 09:58:09;;;;;;;5.03;4.53;;;;;;;20.71;34.63;101208.19;5001164;28;20241;-70
2022/04/23 10:00:36;;;;;;;5.53;5.03;;;;;;;20.70;33.44;101208.19;5009573;28;20179;-71
2022/04/23 10:03:06;;;;;;;5.40;4.60;;;;;;;20.58;32.43;101211.84;5007932;28;20206;-70
2022/04/23 10:05:37;;;;;;;5.87;4.40;;;;;;;20.55;32.76;101218.84;5009553;28;20726;-69
2022/04/23 10:08:08;;;;;;;5.67;5.10;;;;;;;21.02;32.56;101212.03;5009099;28;20581;-69
2022/04/23 10:10:38;;;;;;;6.43;5.83;;;;;;;21.33;34.18;101220.16;5009488;28;20586;-69
2022/04/23 10:13:06;;;;;;;5.90;5.40;;;;;;;21.12;32.95;101213.59;5009540;28;20215;-69
2022/04/23 10:15:32;;;;;;;8.23;5.37;;;;;;;21.29;32.25;101205.47;5009063;28;20198;-68
2022/04/23 10:17:58;;;;;;;5.27;4.80;;;;;;;21.16;32.53;101214.38;5009471;28;20714;-69
2022/04/23 10:20:25;;;;;;;4.90;4.50;;;;;;;21.54;31.78;101212.78;4990713;28;20281;-68
2022/04/23 10:23:03;;;;;;;5.80;5.27;;;;;;;20.97;31.81;101207.78;4990870;28;20176;-68
2022/04/23 10:25:45;;;;;;;5.80;5.23;;;;;;;21.20;32.43;101209.13;4989348;28;20195;-68
2022/04/23 10:28:11;;;;;;;5.10;4.60;;;;;;;20.83;33.55;101204.50;4989813;28;20184;-66
2022/04/23 10:30:36;;;;;;;4.90;4.50;;;;;;;21.23;32.62;101200.38;4989458;28;20775;-68
2022/04/23 10:33:23;;;;;;;5.00;4.60;;;;;;;21.79;31.97;101201.00;4997692;28;20222;-68
2022/04/23 10:36:03;;;;;;;5.03;4.63;;;;;;;21.93;31.24;101193.75;5003360;28;20211;-69
2022/04/23 10:38:29;;;;;;;4.83;4.43;;;;;;;20.75;33.67;101207.25;5001667;28;20175;-69
2022/04/23 10:40:56;;;;;;;5.77;5.27;;;;;;;21.17;31.70;101192.66;5007719;28;20194;-69
2022/04/23 10:43:21;;;;;;;5.03;4.53;;;;;;;22.04;32.16;101194.41;5008511;28;20214;-69
2022/04/23 10:45:48;;;;;;;5.30;4.80;;;;;;;22.63;30.98;101193.06;5008920;28;20258;-69
2022/04/23 10:48:19;;;;;;;4.10;3.80;;;;;;;21.65;31.82;101186.53;5010705;28;20190;-69
2022/04/23 10:51:16;;;;;;;6.93;3.97;;;;;;;22.24;30.32;101179.16;5011756;28;20195;-69
2022/04/23 10:53:41;;;;;;;4.93;4.43;;;;;;;21.49;31.43;101174.66;5011195;28;20722;-68
2022/04/23 10:56:11;;;;;;;5.40;4.90;;;;;;;21.41;31.78;101186.97;5019742;28;20234;-68
2022/04/23 10:58:43;;;;;;;4.37;4.00;;;;;;;22.12;32.07;101163.75;5030958;28;20263;-69
2022/04/23 11:01:22;;;;;;;4.50;4.10;;;;;;;21.21;31.42;101183.91;5022639;28;20195;-68
2022/04/23 11:03:56;;;;;;;4.60;4.20;;;;;;;21.76;31.81;101174.13;5013667;28;20225;-69
2022/04/23 11:12:18;;;;;;;5.60;4.90;;;;;;;21.92;31.31;101168.56;5027416;28;20191;-68
2022/04/23 11:14:45;;;;;;;5.67;5.17;;;;;;;21.38;31.54;101158.38;5012881;28;20188;-68
2022/04/23 11:17:12;;;;;;;5.23;4.73;;;;;;;21.95;31.59;101155.47;5011953;28;20606;-68
2022/04/23 11:19:39;;;;;;;4.60;4.27;;;;;;;21.48;31.28;101162.53;5012592;28;20218;-70
2022/04/23 11:22:05;;;;;;;5.23;4.73;;;;;;;21.35;31.24;101163.66;5012520;28;20707;-70
2022/04/23 11:24:30;;;;;;;4.87;4.47;;;;;;;21.51;31.33;101155.50;5012349;28;20179;-70
2022/04/23 11:26:56;;;;;;;4.80;4.40;;;;;;;22.07;31.40;101146.50;5009402;28;20270;-68
2022/04/23 11:29:21;;;;;;;5.17;4.67;;;;;;;22.46;30.68;101139.53;5012021;28;20191;-68
2022/04/23 11:31:56;;;;;;;4.80;4.30;;;;;;;22.18;29.81;101145.38;5012485;28;20221;-68
2022/04/23 11:34:22;;;;;;;5.37;4.13;;;;;;;22.60;29.34;101142.66;5010434;28;20220;-68
2022/04/23 11:36:48;;;;;;;4.80;4.33;;;;;;;22.44;29.98;101144.75;5012362;28;20222;-68
2022/04/23 11:39:13;;;;;;;4.77;4.23;;;;;;;22.15;30.46;101142.81;5011616;28;20197;-68
2022/04/23 11:41:47;;;;;;;4.80;4.40;;;;;;;22.46;30.38;101131.69;5012454;28;20180;-69
2022/04/23 11:44:45;;;;;;;5.67;5.27;;;;;;;21.97;30.21;101140.63;5003444;28;20283;-68
2022/04/23 11:47:12;;;;;;;6.43;5.83;;;;;;;21.86;29.79;101129.59;4992518;28;20222;-68
2022/04/23 11:49:37;;;;;;;6.80;4.97;;;;;;;22.44;29.88;101134.31;4992531;28;20190;-69